Flemington, MO

12:41 CDT le 22 août 2014 (GMT -0500)
Fine Memorial | Change Station
CLOSE
Current Station
Aéroport
Location: Kaiser,
Altitude: 869 ft
Stations météo à proximité

Alt. 869 ft 38.10 °N, 92.55 °W | Updated 6 minutes ago

Clear
Ciel dégagé
91 ° F
Paraît 98 ° F
N
8
Vent Variable Vent de OSO

Aujourd'hui
Haut(e) -- | Bas -- ° F
--% Risque de précip.
Hier
Haut(e) -- | Bas -- ° F
Precip. -- pouce
6:35 AM 7:57 PM
Lune descendante, 7% visible
Pression 29.99 pouce
Visibilité 10.0 Miles terrestres
Nuages Ciel dégagé
indice de chaleur 98 ° F
Point de rosée 72 ° F
Humidité 52%
Précipitations 0.00 pouce
Profondeur de la couche neigeuse Non disponible.
UV 10 sur 12
Pollen 10.70 sur 12
Ozone Bon
PM2.5 Moyen
Flu Activity Non disponible.
METAR KAIZ 221735Z AUTO 25007KT 10SM CLR 33/22 A2999 RMK AO1

More Conditions Fewer Conditions

Pression 29.99 pouce
Visibilité 10.0 Miles terrestres
Nuages Ciel dégagé
indice de chaleur 98 ° F
Point de rosée 72 ° F
Humidité 52%
Précipitations 0.00 pouce
Profondeur de la couche neigeuse Non disponible.
UV 10 sur 12
Pollen 10.70 sur 12
Ozone Bon
PM2.5 Moyen
Flu Activity Non disponible.
METAR KAIZ 221735Z AUTO 25007KT 10SM CLR 33/22 A2999 RMK AO1

More Conditions Fewer Conditions

10-Day Weather Forecast

Almanac

Astronomie

Aug. 22, 2014 Lever Coucher
Temps réel 06:35 CDT 19:57 CDT
Crépuscule civil 06:07 CDT 20:24 CDT
Crépuscule nautique 05:34 CDT 20:57 CDT
Crépuscule astronomique 05:00 CDT 21:31 CDT
Lune 03:59 CDT 18:05 CDT
Durée de lumière visible 14h 16m
Longueur du jour
13h 21m
Tomorrow will be 2m 13s shorter.
Lune descendante, 7% of the Moon is Illuminated
Aujourd'hui
Lune descendante
août 25
Nouveau
Sep 2
Premier quartier
Sep 8
Pleine lune
Sep 15
Dernier quartier

Extrêmes aujourd'hui

State Highs State Lows

Community

WunderPhotos

Upload Photos

1,746,206 Photos téléchargées !

WunderBlogs® & News

Nearby

Qualité de l'air

  Qualité de l'air Indice de la qualité de l'air Polluant
Hier Bon
PM10
Hier Bon
OZONE
Actuel Moyen
PM2.5
Actuel Bon
OZONE
vendredi Moyen
OZONE
vendredi Moyen
PM2.5
samedi Moyen
OZONE
samedi Moyen
PM2.5
dimanche Moyen
OZONE
dimanche Moyen
PM2.5
lundi Moyen
OZONE
lundi Moyen
PM2.5
mardi Moyen
OZONE
mardi Moyen
PM2.5

Épaisseur de neige

Station Depth Altitude
Pas de nouvelles chutes de neige

Activité sismique

Ville Distance Mag. Time & Date
No recent earthquake activity has been reported nearby.
Minimum magnitude displayed is 2.5.

Températures des eaux côtières

Lieu Température
Aucun rapport de station

Stations météo à proximité